DW8816 Weather Reports


Display with metric or nautical units.
time (UTC)temp
F
wind
direction
speed
MPH
gust
MPH
rain 1hr
in
rain 24hr
in
rain mn
in
humidity
%
barometer
mb
20180816215009 58 0 0.0 2.0 0.00 0.48 0.48 81 1015.4
20180816214008 58 0 0.0 2.0 0.00 0.48 0.48 79 1015.3
20180816213008 58 0 0.0 1.0 0.00 0.48 0.48 79 1015.2
20180816212008 58 0 0.0 1.0 0.00 0.48 0.48 79 1015.0
20180816211007 59 0 0.0 2.0 0.00 0.48 0.48 79 1015.0
20180816210008 59 0 0.0 0.0 0.00 0.48 0.48 77 1015.0
20180816205007 59 0 0.0 0.0 0.00 0.48 0.48 76 1014.9
20180816204008 60 0 0.0 0.0 0.00 0.48 0.48 77 1014.8
20180816203008 60 0 0.0 0.0 0.00 0.48 0.48 76 1014.7
20180816202007 60 0 0.0 1.0 0.00 0.48 0.48 74 1014.6
20180816201008 61 265 0.0 2.0 0.00 0.48 0.48 74 1014.5
20180816200009 61 0 0.0 4.0 0.00 0.48 0.48 71 1014.4
20180816195008 62 273 1.0 3.0 0.00 0.48 0.48 73 1014.4
20180816194007 62 261 1.0 3.0 0.00 0.48 0.48 71 1014.3
20180816193008 62 270 1.0 4.0 0.00 0.48 0.48 70 1014.2
20180816192007 63 267 1.0 5.0 0.00 0.48 0.48 70 1014.0
20180816191007 64 257 1.0 7.0 0.00 0.48 0.48 69 1013.9
20180816190008 64 261 2.0 5.0 0.00 0.48 0.48 68 1013.8
20180816185007 64 250 2.0 8.0 0.00 0.48 0.48 67 1013.7
20180816184007 64 260 2.0 7.0 0.00 0.48 0.48 67 1013.6
20180816183008 64 258 3.0 7.0 0.00 0.48 0.48 68 1013.6
20180816182007 65 259 3.0 9.0 0.00 0.48 0.48 65 1013.4
20180816181007 65 265 2.0 8.0 0.00 0.48 0.48 66 1013.3
20180816180008 65 263 3.0 10.0 0.00 0.48 0.48 63 1013.2
20180816175008 66 262 3.0 10.0 0.00 0.48 0.48 63 1013.1
20180816174008 66 279 2.0 10.0 0.00 0.48 0.48 65 1013.0
20180816173009 66 257 3.0 9.0 0.00 0.48 0.48 64 1013.0
20180816172007 67 259 4.0 12.0 0.00 0.48 0.48 66 1013.0
20180816171007 67 255 4.0 12.0 0.00 0.48 0.48 64 1013.0
20180816170008 67 270 5.0 12.0 0.00 0.48 0.48 62 1013.0
20180816165008 66 257 5.0 12.0 0.00 0.48 0.48 62 1013.0
20180816164007 66 264 3.0 15.0 0.00 0.48 0.48 68 1012.9
20180816163008 66 200 2.0 9.0 0.00 0.48 0.48 80 1012.9
20180816162008 66 260 2.0 7.0 0.00 0.48 0.48 81 1012.9
20180816161008 66 239 1.0 7.0 0.00 0.48 0.48 81 1012.9
20180816160009 66 190 2.0 7.0 0.00 0.48 0.48 81 1012.8
20180816155008 65 200 1.0 4.0 0.00 0.48 0.48 82 1012.9
20180816154007 65 237 1.0 4.0 0.00 0.48 0.48 83 1012.9
20180816153009 65 192 2.0 8.0 0.00 0.48 0.48 81 1012.9
20180816152007 65 222 2.0 5.0 0.00 0.48 0.48 82 1012.8
20180816151007 65 242 2.0 7.0 0.00 0.48 0.48 80 1012.8
20180816150008 64 231 1.0 7.0 0.00 0.48 0.48 81 1012.8
20180816145008 64 238 2.0 4.0 0.00 0.48 0.48 85 1012.8
20180816144008 64 230 2.0 7.0 0.00 0.48 0.48 82 1012.9
20180816143008 64 256 2.0 4.0 0.00 0.48 0.48 85 1012.9
20180816142007 63 241 3.0 7.0 0.00 0.48 0.48 86 1012.9
20180816141007 63 252 3.0 8.0 0.00 0.48 0.48 86 1013.0
20180816140008 62 247 3.0 8.0 0.00 0.48 0.48 87 1013.1
20180816135007 62 247 3.0 9.0 0.00 0.48 0.48 86 1013.0
20180816134007 62 249 3.0 8.0 0.00 0.48 0.48 88 1013.1
20180816133010 61 263 2.0 7.0 0.00 0.48 0.48 92 1013.1
20180816132007 61 233 1.0 4.0 0.00 0.48 0.48 91 1013.1
20180816131007 60 267 1.0 5.0 0.00 0.48 0.48 91 1012.9
20180816130008 60 202 1.0 5.0 0.00 0.48 0.48 92 1012.9
20180816125007 59 236 2.0 5.0 0.00 0.48 0.48 93 1012.9
20180816124007 59 233 1.0 5.0 0.01 0.48 0.48 92 1012.7
20180816123008 59 233 2.0 7.0 0.01 0.48 0.48 92 1013.1
20180816122008 58 232 1.0 4.0 0.02 0.48 0.48 92 1013.0
20180816121007 58 234 1.0 4.0 0.03 0.48 0.48 92 1012.7
20180816120008 58 155 1.0 3.0 0.03 0.48 0.48 92 1012.5
20180816115007 58 225 2.0 3.0 0.04 0.48 0.48 92 1012.9
20180816114009 58 245 2.0 7.0 0.04 0.47 0.47 91 1012.9
20180816113008 59 243 3.0 10.0 0.07 0.47 0.47 91 1012.8
20180816112007 59 243 2.0 9.0 0.08 0.46 0.46 90 1012.6
20180816111007 60 262 3.0 8.0 0.08 0.45 0.45 91 1012.5
20180816110008 61 254 4.0 7.0 0.10 0.45 0.45 91 1012.2
20180816105007 61 259 2.0 14.0 0.10 0.44 0.44 92 1012.1
20180816104007 61 251 2.0 6.0 0.09 0.42 0.42 93 1011.9
20180816103008 61 244 1.0 6.0 0.07 0.40 0.40 93 1012.1
20180816102007 61 255 2.0 6.0 0.07 0.38 0.38 93 1012.1
20180816101007 61 251 1.0 4.0 0.08 0.37 0.37 92 1012.2
20180816100008 61 248 1.0 3.0 0.06 0.35 0.35 93 1012.1
20180816095007 61 246 1.0 7.0 0.08 0.34 0.34 93 1012.1
20180816094007 61 252 2.0 7.0 0.11 0.33 0.33 92 1012.0
20180816093008 61 263 2.0 5.0 0.24 0.33 0.33 93 1012.0
20180816092008 61 271 1.0 4.0 0.26 0.31 0.31 93 1011.9
20180816091007 61 262 2.0 8.0 0.25 0.29 0.29 93 1012.0
20180816090014 62 269 3.0 7.0 0.25 0.29 0.29 92 1011.9
20180816085007 62 267 4.0 13.0 0.22 0.25 0.25 92 1012.0
20180816084007 63 273 2.0 11.0 0.19 0.21 0.21 93 1012.1
20180816083008 63 239 2.0 6.0 0.06 0.07 0.07 93 1011.6
20180816082007 63 236 2.0 8.0 0.04 0.05 0.05 93 1011.6
20180816081008 63 203 1.0 7.0 0.03 0.04 0.04 93 1011.5
20180816080008 63 250 2.0 9.0 0.03 0.04 0.04 93 1011.6
20180816075008 63 239 3.0 11.0 0.02 0.03 0.03 93 1011.9
20180816074007 63 231 3.0 13.0 0.02 0.02 0.02 92 1011.9
20180816073009 63 244 2.0 7.0 0.01 0.01 0.01 92 1011.8
20180816072008 63 232 3.0 7.0 0.01 0.01 0.01 92 1011.7
20180816071008 63 229 3.0 10.0 0.01 0.01 0.01 92 1011.7
20180816070007 63 235 3.0 9.0 0.01 0.01 0.01 92 1011.8
20180816065008 63 222 2.0 12.0 0.01 0.01 0.01 92 1011.8
20180816064007 63 234 2.0 6.0 0.00 0.00 0.00 91 1011.7
20180816063008 63 227 3.0 10.0 0.00 0.00 0.00 91 1011.9
20180816062007 63 226 4.0 14.0 0.00 0.00 0.00 90 1011.8
20180816061007 64 232 3.0 10.0 0.00 0.00 0.00 89 1011.7
20180816060008 64 217 3.0 11.0 0.00 0.00 0.00 89 1011.7
20180816055007 63 226 3.0 9.0 0.00 0.00 0.00 89 1011.8
20180816054008 64 206 3.0 10.0 0.00 0.00 0.00 89 1011.9
20180816053008 64 225 3.0 12.0 0.00 0.00 0.00 88 1011.8
20180816052007 64 220 3.0 8.0 0.00 0.00 0.00 88 1011.8
20180816051007 64 219 2.0 9.0 0.00 0.00 0.00 87 1011.7
20180816050008 64 223 3.0 10.0 0.00 0.00 0.00 86 1011.8
20180816045007 64 242 3.0 11.0 0.00 0.00 0.00 86 1011.8
20180816044007 64 238 3.0 11.0 0.00 0.00 0.00 84 1011.9
20180816043008 64 243 3.0 9.0 0.00 0.00 0.00 84 1011.9
20180816042010 64 238 4.0 9.0 0.00 0.00 0.00 83 1011.8
20180816041007 64 230 4.0 16.0 0.00 0.00 0.00 83 1011.8
20180816040008 64 247 4.0 13.0 0.00 0.00 0.00 83 1011.9
20180816035007 64 227 3.0 10.0 0.00 0.00 0.00 83 1012.2
20180816034007 64 246 3.0 11.0 0.00 0.00 0.00 83 1012.3
20180816033008 64 223 3.0 9.0 0.00 0.00 0.00 84 1012.2
20180816032007 64 227 3.0 12.0 0.00 0.00 0.00 84 1012.3
20180816031007 64 242 4.0 11.0 0.00 0.00 0.00 83 1012.5
20180816030008 64 243 5.0 14.0 0.00 0.00 0.00 83 1012.6
20180816025007 64 243 5.0 14.0 0.00 0.00 0.00 83 1012.9
20180816024007 64 244 4.0 14.0 0.00 0.00 0.00 83 1013.0
20180816023008 64 253 4.0 8.0 0.00 0.00 0.00 84 1013.0
20180816022007 64 241 5.0 11.0 0.00 0.00 0.00 84 1013.0
20180816021007 64 250 4.0 16.0 0.00 0.00 0.00 83 1013.1
20180816020008 64 239 4.0 11.0 0.00 0.00 0.00 84 1013.0
20180816015007 64 239 4.0 10.0 0.00 0.00 0.00 84 1013.1
20180816014007 64 250 3.0 11.0 0.00 0.00 0.00 84 1013.1
20180816013008 64 247 2.0 9.0 0.00 0.00 0.00 85 1013.0
20180816012007 64 230 3.0 8.0 0.00 0.00 0.00 85 1013.1
20180816011007 64 243 2.0 9.0 0.00 0.00 0.00 85 1013.2
20180816010008 64 205 2.0 8.0 0.00 0.00 0.00 84 1013.3
20180816005007 64 210 2.0 7.0 0.00 0.00 0.00 84 1013.4
20180816004007 64 207 1.0 8.0 0.00 0.00 0.00 84 1013.5
20180816003008 65 214 1.0 6.0 0.00 0.00 0.00 83 1013.7
20180816002007 65 190 2.0 6.0 0.00 0.00 0.00 83 1013.7
20180816001006 65 231 2.0 8.0 0.00 0.00 0.00 82 1013.8
20180816000007 65 226 3.0 7.0 0.00 0.00 0.00 82 1013.9
20180815235007 65 233 3.0 10.0 0.00 0.00 0.00 82 1014.0
20180815234007 65 229 2.0 8.0 0.00 0.00 0.00 82 1014.1
20180815233008 65 236 2.0 8.0 0.00 0.00 0.00 81 1014.2
20180815232007 65 190 2.0 8.0 0.00 0.00 0.00 81 1014.2
20180815231007 65 228 3.0 8.0 0.00 0.00 0.00 80 1014.3
20180815230008 65 240 4.0 10.0 0.00 0.00 0.00 80 1014.4
20180815225007 65 249 3.0 10.0 0.00 0.00 0.00 80 1014.4
20180815224007 65 247 3.0 9.0 0.00 0.00 0.00 79 1014.5
20180815223008 66 246 3.0 7.0 0.00 0.00 0.00 79 1014.5
20180815222007 66 225 4.0 10.0 0.00 0.00 0.00 78 1014.5
20180815221007 66 244 3.0 10.0 0.00 0.00 0.00 78 1014.6
20180815220008 66 244 4.0 10.0 0.00 0.00 0.00 78 1014.5